Time;durP1;ratioP1;P1;durP2;ratioP2;P2;SDS_P1;SDS_P2;PMS_P1;PMS_P2;Temp;Humidity;BMP_temperature;BMP_pressure;BME280_temperature;BME280_humidity;BME280_pressure;Samples;Min_cycle;Max_cycle;Signal;HPM_P1;HPM_P2
2023/09/04 00:01:41;;;;;;;7.85;7.07;;;;;;;14.76;100.00;102656.06;5046555;28;20375;-49
2023/09/04 00:04:07;;;;;;;7.40;6.75;;;;;;;14.72;100.00;102659.91;5049568;28;20024;-50
2023/09/04 00:06:33;;;;;;;10.02;8.15;;;;;;;14.71;100.00;102656.38;5057650;28;20033;-48
2023/09/04 00:09:01;;;;;;;8.50;7.68;;;;;;;14.66;100.00;102663.84;5051490;28;20055;-48
2023/09/04 00:11:27;;;;;;;8.43;7.55;;;;;;;14.66;100.00;102653.16;5051352;28;20084;-48
2023/09/04 00:13:52;;;;;;;8.73;7.85;;;;;;;14.63;100.00;102652.50;5051497;28;20499;-49
2023/09/04 00:16:18;;;;;;;8.57;7.78;;;;;;;14.56;100.00;102650.16;5045807;28;20034;-49
2023/09/04 00:18:44;;;;;;;8.75;7.95;;;;;;;14.55;100.00;102648.44;5049385;28;20117;-49
2023/09/04 00:21:09;;;;;;;8.30;7.43;;;;;;;14.56;100.00;102647.50;5043565;28;20063;-48
2023/09/04 00:23:34;;;;;;;7.78;7.00;;;;;;;14.54;100.00;102653.91;5046102;28;20440;-48
2023/09/04 00:26:00;;;;;;;8.57;7.78;;;;;;;14.48;100.00;102651.63;5042922;28;20440;-49
2023/09/04 00:28:25;;;;;;;8.32;7.55;;;;;;;14.46;100.00;102653.56;5044543;28;20025;-49
2023/09/04 00:30:51;;;;;;;10.50;7.95;;;;;;;14.36;100.00;102654.13;5041250;28;20037;-48
2023/09/04 00:33:16;;;;;;;8.57;7.75;;;;;;;14.37;100.00;102644.28;5053459;28;20086;-48
2023/09/04 00:35:42;;;;;;;9.32;7.63;;;;;;;14.33;100.00;102640.94;5042467;28;20100;-49
2023/09/04 00:38:07;;;;;;;10.18;7.43;;;;;;;14.30;100.00;102645.63;5046933;28;20029;-49
2023/09/04 00:40:33;;;;;;;10.13;7.45;;;;;;;14.29;100.00;102644.78;5047011;28;20036;-49
2023/09/04 00:42:58;;;;;;;10.68;7.78;;;;;;;14.27;100.00;102644.00;5044389;28;20037;-50
2023/09/04 00:45:23;;;;;;;7.88;7.18;;;;;;;14.27;100.00;102645.84;5046542;28;20032;-49
2023/09/04 00:47:49;;;;;;;11.43;7.57;;;;;;;14.24;100.00;102649.56;5048897;28;20109;-48
2023/09/04 00:50:21;;;;;;;8.85;8.00;;;;;;;14.21;100.00;102652.44;5050988;28;20044;-49
2023/09/04 00:52:48;;;;;;;8.23;7.43;;;;;;;14.20;100.00;102650.72;5048540;28;20040;-50
2023/09/04 00:55:14;;;;;;;8.68;7.78;;;;;;;14.11;100.00;102660.16;5045104;28;20048;-48
2023/09/04 00:57:42;;;;;;;9.40;8.25;;;;;;;14.08;100.00;102647.00;5050816;28;20043;-50
2023/09/04 01:00:10;;;;;;;9.02;8.15;;;;;;;14.07;100.00;102651.50;5045431;28;20032;-48
2023/09/04 01:02:37;;;;;;;8.80;8.00;;;;;;;14.03;100.00;102652.63;5044783;28;20078;-49
2023/09/04 01:05:03;;;;;;;8.90;8.00;;;;;;;14.00;100.00;102646.63;5041386;28;20030;-48
2023/09/04 01:07:29;;;;;;;8.57;7.75;;;;;;;13.92;100.00;102647.09;5043549;28;20036;-49
2023/09/04 01:09:55;;;;;;;9.77;7.57;;;;;;;13.93;100.00;102640.81;5046431;28;20438;-48
2023/09/04 01:12:24;;;;;;;9.85;8.05;;;;;;;13.87;100.00;102639.38;5046067;28;20020;-49
2023/09/04 01:14:55;;;;;;;9.77;8.88;;;;;;;13.77;100.00;102630.22;5052890;28;20037;-49
2023/09/04 01:17:21;;;;;;;8.70;7.80;;;;;;;13.84;100.00;102638.72;5047372;28;20056;-49
2023/09/04 01:19:46;;;;;;;8.85;8.05;;;;;;;13.76;100.00;102643.66;5046719;28;20492;-48
2023/09/04 01:22:12;;;;;;;8.80;7.90;;;;;;;13.76;100.00;102641.00;5053719;28;20033;-49
2023/09/04 01:24:38;;;;;;;10.98;8.20;;;;;;;13.76;100.00;102633.00;5043090;28;20032;-48
2023/09/04 01:27:23;;;;;;;8.63;7.82;;;;;;;13.71;100.00;102635.94;5054631;28;20275;-48
2023/09/04 01:30:13;;;;;;;8.45;7.65;;;;;;;13.69;100.00;102627.16;5043339;28;20470;-49
2023/09/04 01:32:42;;;;;;;8.55;7.75;;;;;;;13.58;100.00;102641.16;5048410;28;20586;-50
2023/09/04 01:35:10;;;;;;;9.30;8.40;;;;;;;13.54;100.00;102638.75;5046186;28;20021;-48
2023/09/04 01:37:37;;;;;;;9.70;8.68;;;;;;;13.56;100.00;102644.88;5046140;28;20025;-49
2023/09/04 01:40:04;;;;;;;9.57;8.57;;;;;;;13.47;100.00;102636.47;5043817;28;20040;-48
2023/09/04 01:42:29;;;;;;;9.40;8.50;;;;;;;13.47;100.00;102638.28;5035312;28;20033;-49
2023/09/04 01:44:55;;;;;;;8.85;8.02;;;;;;;13.42;100.00;102643.03;5043981;28;20052;-49
2023/09/04 01:47:20;;;;;;;9.65;8.75;;;;;;;13.36;100.00;102643.41;5041927;28;20057;-48
2023/09/04 01:49:45;;;;;;;10.40;9.35;;;;;;;13.37;100.00;102642.44;5040148;28;20468;-48
2023/09/04 01:52:11;;;;;;;10.25;8.65;;;;;;;13.35;100.00;102637.19;5047870;28;20080;-48
2023/09/04 01:54:37;;;;;;;9.45;8.30;;;;;;;13.29;100.00;102635.72;5044360;28;20106;-49
2023/09/04 01:57:02;;;;;;;9.38;8.43;;;;;;;13.32;100.00;102640.03;5044072;28;20037;-48
2023/09/04 01:59:27;;;;;;;10.52;8.52;;;;;;;13.29;100.00;102630.41;5046960;28;20051;-49
2023/09/04 02:01:53;;;;;;;9.00;8.10;;;;;;;13.27;100.00;102634.97;5048112;28;20060;-47
2023/09/04 02:04:18;;;;;;;9.75;8.77;;;;;;;13.26;100.00;102635.91;5052549;28;20548;-48
2023/09/04 02:06:43;;;;;;;12.60;9.73;;;;;;;13.22;100.00;102634.38;5050535;28;20152;-48
2023/09/04 02:09:09;;;;;;;9.90;8.90;;;;;;;13.20;100.00;102632.75;5058132;28;20020;-48
2023/09/04 02:11:34;;;;;;;10.75;9.38;;;;;;;13.16;100.00;102620.56;5050196;28;20013;-48
2023/09/04 02:13:59;;;;;;;9.65;8.55;;;;;;;13.20;100.00;102630.06;5054845;28;20029;-48
2023/09/04 02:16:25;;;;;;;11.40;9.23;;;;;;;13.17;100.00;102624.91;5041427;28;20123;-48
2023/09/04 02:18:51;;;;;;;12.50;9.48;;;;;;;13.14;100.00;102618.81;5047615;28;20489;-48
2023/09/04 02:21:16;;;;;;;10.88;9.70;;;;;;;13.05;100.00;102616.69;5048218;28;20075;-47
2023/09/04 02:23:42;;;;;;;11.15;9.38;;;;;;;13.09;100.00;102612.03;5048249;28;20025;-48
2023/09/04 02:26:07;;;;;;;10.77;9.57;;;;;;;13.06;100.00;102607.75;5049077;28;20040;-49
2023/09/04 02:28:33;;;;;;;10.52;9.48;;;;;;;13.04;100.00;102609.66;5048048;28;20052;-48
2023/09/04 02:30:58;;;;;;;11.20;9.50;;;;;;;13.04;100.00;102606.97;5051790;28;20021;-48
2023/09/04 02:33:23;;;;;;;15.13;10.35;;;;;;;13.02;100.00;102605.34;5053122;28;20032;-47
2023/09/04 02:35:49;;;;;;;11.77;10.57;;;;;;;12.99;100.00;102603.72;5048571;28;20067;-47
2023/09/04 02:38:15;;;;;;;11.00;9.88;;;;;;;12.94;100.00;102595.13;5044773;28;20379;-48
2023/09/04 02:40:40;;;;;;;12.25;10.95;;;;;;;12.93;100.00;102593.41;5052237;28;20036;-48
2023/09/04 02:43:05;;;;;;;12.68;10.65;;;;;;;12.94;100.00;102598.66;5046532;28;20075;-48
2023/09/04 02:45:32;;;;;;;13.43;10.95;;;;;;;12.91;100.00;102601.50;5050763;28;20040;-48
2023/09/04 02:47:58;;;;;;;11.95;10.60;;;;;;;12.92;100.00;102597.00;5045721;28;20044;-48
2023/09/04 02:50:23;;;;;;;13.43;11.13;;;;;;;12.89;100.00;102592.75;5043947;28;20455;-48
2023/09/04 02:52:48;;;;;;;12.68;10.98;;;;;;;12.90;100.00;102596.25;5048106;28;20043;-48
2023/09/04 02:55:14;;;;;;;12.98;11.60;;;;;;;12.90;100.00;102593.59;5045285;28;20032;-48
2023/09/04 02:57:39;;;;;;;13.02;11.63;;;;;;;12.90;100.00;102596.25;5051180;28;20457;-48
2023/09/04 03:00:06;;;;;;;14.60;12.38;;;;;;;12.88;100.00;102591.00;5045709;28;20060;-50
2023/09/04 03:02:32;;;;;;;15.13;12.35;;;;;;;12.87;100.00;102585.75;5047166;28;20100;-48
2023/09/04 03:04:58;;;;;;;15.05;13.45;;;;;;;12.89;100.00;102592.75;5045855;28;20060;-48
2023/09/04 03:07:26;;;;;;;15.18;13.02;;;;;;;12.89;100.00;102583.84;5048665;28;20044;-48
2023/09/04 03:09:55;;;;;;;15.35;13.88;;;;;;;12.86;100.00;102573.41;5044005;28;20035;-49
2023/09/04 03:12:22;;;;;;;17.58;12.85;;;;;;;12.91;100.00;102579.31;5049667;28;20103;-48
2023/09/04 03:14:52;;;;;;;14.90;13.38;;;;;;;12.90;100.00;102570.44;5053722;28;20021;-50
2023/09/04 03:17:18;;;;;;;14.73;13.13;;;;;;;12.90;100.00;102575.75;5054421;28;20025;-49
2023/09/04 03:19:43;;;;;;;15.85;13.63;;;;;;;12.87;100.00;102567.97;5054601;28;20108;-48
2023/09/04 03:22:08;;;;;;;14.82;13.30;;;;;;;12.85;100.00;102561.00;5050312;28;20043;-48
2023/09/04 03:24:33;;;;;;;14.32;12.90;;;;;;;12.84;100.00;102554.81;5050875;28;20035;-49
2023/09/04 03:26:59;;;;;;;15.32;12.63;;;;;;;12.84;100.00;102556.59;5040586;28;20067;-48
2023/09/04 03:29:24;;;;;;;15.63;13.07;;;;;;;12.81;100.00;102560.31;5050791;28;20021;-49
2023/09/04 03:31:49;;;;;;;14.55;13.05;;;;;;;12.80;100.00;102571.06;5051211;28;20125;-48
2023/09/04 03:34:15;;;;;;;15.63;13.15;;;;;;;12.80;100.00;102569.25;5053404;28;20054;-49
2023/09/04 03:36:40;;;;;;;14.63;12.75;;;;;;;12.81;100.00;102572.81;5047304;28;20372;-48
2023/09/04 03:39:06;;;;;;;14.88;12.82;;;;;;;12.80;100.00;102569.25;5052701;28;20021;-51
2023/09/04 03:41:32;;;;;;;14.93;13.30;;;;;;;12.81;100.00;102570.13;5047651;28;20068;-49
2023/09/04 03:43:57;;;;;;;14.85;12.90;;;;;;;12.81;100.00;102571.00;5050197;28;20143;-48
2023/09/04 03:46:22;;;;;;;14.82;13.23;;;;;;;12.81;100.00;102571.00;5046953;28;20029;-48
2023/09/04 03:48:47;;;;;;;14.65;12.98;;;;;;;12.81;100.00;102563.00;5053117;28;20037;-49
2023/09/04 03:51:13;;;;;;;14.23;12.73;;;;;;;12.76;100.00;102562.41;5047186;28;20463;-49
2023/09/04 03:53:38;;;;;;;15.85;12.63;;;;;;;12.77;100.00;102554.31;5043014;28;20127;-49
2023/09/04 03:56:05;;;;;;;16.90;13.75;;;;;;;12.78;100.00;102560.50;5051006;28;20021;-50
2023/09/04 03:58:31;;;;;;;14.88;13.38;;;;;;;12.78;100.00;102561.34;5047035;28;20064;-49
2023/09/04 04:00:57;;;;;;;15.95;14.23;;;;;;;12.77;100.00;102548.97;5044357;28;20032;-49
2023/09/04 04:03:23;;;;;;;14.38;12.82;;;;;;;12.76;100.00;102555.25;5047610;28;20021;-49
2023/09/04 04:05:48;;;;;;;16.00;12.85;;;;;;;12.76;100.00;102557.91;5043220;28;20029;-49
2023/09/04 04:08:13;;;;;;;15.60;13.20;;;;;;;12.75;100.00;102563.34;5039963;28;20053;-48
2023/09/04 04:10:39;;;;;;;14.57;12.82;;;;;;;12.75;100.00;102561.53;5054676;28;20029;-49
2023/09/04 04:13:05;;;;;;;14.10;12.65;;;;;;;12.74;100.00;102557.16;5045657;28;20033;-50
2023/09/04 04:15:30;;;;;;;16.48;13.32;;;;;;;12.74;100.00;102567.81;5051241;28;20025;-49
2023/09/04 04:17:55;;;;;;;14.98;12.95;;;;;;;12.74;100.00;102559.81;5043670;28;20037;-50
2023/09/04 04:20:22;;;;;;;13.95;12.60;;;;;;;12.72;100.00;102556.41;5045884;28;20391;-52
2023/09/04 04:22:47;;;;;;;13.57;12.18;;;;;;;12.72;100.00;102553.72;5045392;28;20444;-50
2023/09/04 04:25:12;;;;;;;14.40;13.00;;;;;;;12.71;100.00;102561.81;5046003;28;20024;-49
2023/09/04 04:27:42;;;;;;;14.15;12.60;;;;;;;12.69;100.00;102564.56;5050888;28;20367;-49
2023/09/04 04:30:10;;;;;;;13.52;12.10;;;;;;;12.68;100.00;102554.00;5048806;28;20113;-49
2023/09/04 04:32:36;;;;;;;13.60;11.90;;;;;;;12.66;100.00;102558.56;5045803;28;20036;-49
2023/09/04 04:35:02;;;;;;;15.43;12.55;;;;;;;12.63;100.00;102556.06;5051238;28;20098;-49
2023/09/04 04:37:28;;;;;;;14.35;12.85;;;;;;;12.62;100.00;102557.84;5047209;28;20434;-50
2023/09/04 04:39:53;;;;;;;14.07;12.43;;;;;;;12.61;100.00;102563.28;5045146;28;20116;-50
2023/09/04 04:42:18;;;;;;;14.57;12.98;;;;;;;12.57;100.00;102557.25;5048048;28;20380;-49
2023/09/04 04:44:44;;;;;;;15.00;12.70;;;;;;;12.57;100.00;102552.81;5046567;28;20102;-49
2023/09/04 04:47:09;;;;;;;15.35;12.80;;;;;;;12.53;100.00;102553.91;5043627;28;20036;-49
2023/09/04 04:49:35;;;;;;;14.77;13.23;;;;;;;12.52;100.00;102546.88;5043334;28;20037;-49
2023/09/04 04:52:00;;;;;;;13.43;12.02;;;;;;;12.51;100.00;102546.97;5044164;28;20027;-50
2023/09/04 04:54:25;;;;;;;14.68;12.02;;;;;;;12.50;100.00;102542.59;5048214;28;20029;-50
2023/09/04 04:56:51;;;;;;;15.85;12.75;;;;;;;12.51;100.00;102544.31;5044204;28;20557;-48
2023/09/04 04:59:16;;;;;;;13.80;12.27;;;;;;;12.46;100.00;102541.91;5051463;28;20375;-48
2023/09/04 05:01:42;;;;;;;15.80;12.40;;;;;;;12.45;100.00;102539.31;5048398;28;20503;-49
2023/09/04 05:04:07;;;;;;;14.85;11.65;;;;;;;12.42;100.00;102536.84;5048874;28;20446;-49
2023/09/04 05:06:32;;;;;;;14.70;12.50;;;;;;;12.40;100.00;102547.56;5042337;28;20030;-48
2023/09/04 05:08:58;;;;;;;14.68;12.57;;;;;;;12.36;100.00;102552.22;5048045;28;20075;-49
2023/09/04 05:11:23;;;;;;;14.60;12.57;;;;;;;12.34;100.00;102556.78;5040033;28;20391;-50
2023/09/04 05:13:48;;;;;;;14.88;12.95;;;;;;;12.35;100.00;102562.97;5052166;28;20024;-48
2023/09/04 05:16:14;;;;;;;15.18;12.88;;;;;;;12.33;100.00;102556.88;5042304;28;20099;-48
2023/09/04 05:18:39;;;;;;;18.27;12.65;;;;;;;12.34;100.00;102561.25;5045999;28;20035;-48
2023/09/04 05:21:06;;;;;;;16.70;13.45;;;;;;;12.32;100.00;102560.47;5043287;28;20536;-49
2023/09/04 05:23:32;;;;;;;17.65;12.88;;;;;;;12.31;100.00;102559.63;5049454;28;20033;-49
2023/09/04 05:25:57;;;;;;;14.45;12.85;;;;;;;12.34;100.00;102563.91;5047629;28;20368;-49
2023/09/04 05:28:22;;;;;;;14.63;12.88;;;;;;;12.34;100.00;102562.13;5048724;28;20021;-48
2023/09/04 05:30:48;;;;;;;16.88;14.23;;;;;;;12.33;100.00;102568.38;5046111;28;20025;-49
2023/09/04 05:33:13;;;;;;;15.27;13.85;;;;;;;12.37;100.00;102553.06;5048509;28;20021;-49
2023/09/04 05:35:38;;;;;;;15.45;13.85;;;;;;;12.35;100.00;102555.81;5049080;28;20493;-48
2023/09/04 05:38:04;;;;;;;16.10;14.40;;;;;;;12.38;100.00;102558.31;5049838;28;20027;-49
2023/09/04 05:40:29;;;;;;;17.40;14.43;;;;;;;12.42;100.00;102567.00;5048551;28;20025;-48
2023/09/04 05:42:54;;;;;;;15.77;14.13;;;;;;;12.41;100.00;102562.63;5048793;28;20190;-48
2023/09/04 05:45:21;;;;;;;17.58;13.38;;;;;;;12.44;100.00;102562.47;5049352;28;20032;-49
2023/09/04 05:47:46;;;;;;;15.30;12.77;;;;;;;12.48;100.00;102563.13;5053071;28;20021;-48
2023/09/04 05:50:12;;;;;;;16.50;14.85;;;;;;;12.47;100.00;102559.59;5044879;28;20036;-49
2023/09/04 05:52:38;;;;;;;15.50;13.60;;;;;;;12.54;100.00;102555.66;5046350;28;20377;-51
2023/09/04 05:55:03;;;;;;;16.83;15.05;;;;;;;12.56;100.00;102556.41;5049283;28;20170;-48
2023/09/04 05:57:29;;;;;;;16.73;14.73;;;;;;;12.61;100.00;102561.47;5044397;28;20032;-48
2023/09/04 05:59:54;;;;;;;16.02;14.43;;;;;;;12.64;100.00;102560.44;5038846;28;20040;-48
2023/09/04 06:02:20;;;;;;;17.10;14.90;;;;;;;12.66;100.00;102556.75;5043108;28;20032;-48
2023/09/04 06:04:45;;;;;;;16.42;14.48;;;;;;;12.72;100.00;102558.19;5041064;28;20036;-49
2023/09/04 06:07:10;;;;;;;16.98;15.18;;;;;;;12.75;100.00;102558.00;5042558;28;20032;-50
2023/09/04 06:09:39;;;;;;;18.70;15.98;;;;;;;12.81;100.00;102565.66;5039425;28;20037;-49
2023/09/04 06:12:05;;;;;;;17.97;16.17;;;;;;;12.87;100.00;102559.09;5047198;28;20033;-48
2023/09/04 06:14:31;;;;;;;17.20;15.40;;;;;;;12.92;100.00;102565.88;5041904;28;20040;-49
2023/09/04 06:16:56;;;;;;;19.13;15.68;;;;;;;12.98;100.00;102567.31;5036978;28;20025;-48
2023/09/04 06:19:22;;;;;;;18.50;16.58;;;;;;;13.04;100.00;102553.63;5045785;28;20036;-48
2023/09/04 06:21:47;;;;;;;17.40;15.45;;;;;;;13.07;100.00;102558.78;5047363;28;20017;-49
2023/09/04 06:24:13;;;;;;;17.98;15.82;;;;;;;13.15;100.00;102563.66;5045772;28;20037;-50
2023/09/04 06:26:38;;;;;;;18.23;16.30;;;;;;;13.20;100.00;102560.72;5041863;28;20499;-49
2023/09/04 06:29:03;;;;;;;18.83;16.30;;;;;;;13.26;100.00;102558.53;5047731;28;20037;-48
2023/09/04 06:31:29;;;;;;;19.15;16.90;;;;;;;13.33;100.00;102559.91;5050921;28;20021;-49
2023/09/04 06:33:55;;;;;;;17.65;15.85;;;;;;;13.38;100.00;102559.63;5050836;28;20478;-49
2023/09/04 06:36:20;;;;;;;19.83;17.10;;;;;;;13.43;100.00;102554.00;5048820;28;20026;-50
2023/09/04 06:38:46;;;;;;;19.67;16.73;;;;;;;13.52;100.00;102550.75;5047318;28;20036;-49
2023/09/04 06:41:11;;;;;;;19.08;16.98;;;;;;;13.57;100.00;102551.31;5040246;28;20382;-49
2023/09/04 06:43:37;;;;;;;21.85;17.95;;;;;;;13.64;100.00;102546.50;5041197;28;20041;-49
2023/09/04 06:46:03;;;;;;;19.35;16.67;;;;;;;13.71;100.00;102546.97;5045599;28;20106;-49
2023/09/04 06:48:28;;;;;;;24.58;17.48;;;;;;;13.79;100.00;102549.97;5044796;28;20467;-48
2023/09/04 06:50:53;;;;;;;19.08;17.15;;;;;;;13.86;100.00;102559.34;5040886;28;20021;-50
2023/09/04 06:53:19;;;;;;;19.20;16.92;;;;;;;13.93;100.00;102552.66;5044689;28;20021;-48
2023/09/04 06:55:47;;;;;;;23.42;18.23;;;;;;;14.01;100.00;102549.50;5050451;28;20141;-49
2023/09/04 06:58:12;;;;;;;18.90;16.90;;;;;;;14.11;100.00;102550.63;5056224;28;20017;-51
2023/09/04 07:00:37;;;;;;;18.98;16.63;;;;;;;14.21;100.00;102546.38;5047279;28;20029;-50
2023/09/04 07:03:04;;;;;;;20.48;17.33;;;;;;;14.33;100.00;102546.56;5040976;28;20022;-49
2023/09/04 07:05:29;;;;;;;19.40;17.35;;;;;;;14.43;100.00;102551.19;5047875;28;20093;-49
2023/09/04 07:07:55;;;;;;;19.85;16.77;;;;;;;14.55;100.00;102544.16;5041169;28;20026;-49
2023/09/04 07:10:20;;;;;;;18.88;16.98;;;;;;;14.68;100.00;102544.25;5048986;28;20032;-49
2023/09/04 07:12:45;;;;;;;17.75;15.82;;;;;;;14.86;100.00;102542.16;5040719;28;20108;-49
2023/09/04 07:15:11;;;;;;;18.58;15.68;;;;;;;15.00;100.00;102538.53;5045785;28;20021;-49
2023/09/04 07:17:36;;;;;;;17.98;15.85;;;;;;;15.20;100.00;102547.00;5046893;28;20043;-48
2023/09/04 07:20:02;;;;;;;18.75;15.93;;;;;;;15.42;100.00;102547.25;5053557;28;20476;-49
2023/09/04 07:22:27;;;;;;;18.40;14.85;;;;;;;15.60;100.00;102546.91;5049841;28;20515;-50
2023/09/04 07:24:52;;;;;;;17.48;15.63;;;;;;;15.79;100.00;102539.31;5047396;28;20028;-49
2023/09/04 07:27:18;;;;;;;16.00;14.38;;;;;;;15.95;100.00;102540.88;5050916;28;20060;-50
2023/09/04 07:29:43;;;;;;;22.55;15.10;;;;;;;16.13;100.00;102541.34;5040354;28;20044;-49
2023/09/04 07:32:08;;;;;;;15.50;13.30;;;;;;;16.35;100.00;102544.16;5043610;28;20079;-49
2023/09/04 07:34:35;;;;;;;16.25;13.15;;;;;;;16.57;100.00;102554.16;5042790;28;20022;-50
2023/09/04 07:37:01;;;;;;;14.88;13.15;;;;;;;16.81;100.00;102553.25;5040773;28;20037;-49
2023/09/04 07:39:26;;;;;;;17.23;12.73;;;;;;;17.02;100.00;102543.59;5041024;28;20646;-49
2023/09/04 07:41:51;;;;;;;17.25;12.23;;;;;;;17.26;100.00;102550.72;5041768;28;20029;-49
2023/09/04 07:44:16;;;;;;;14.93;12.57;;;;;;;17.51;100.00;102559.53;5042073;28;20041;-51
2023/09/04 07:46:42;;;;;;;15.35;11.82;;;;;;;17.76;100.00;102548.53;5036464;28;20036;-50
2023/09/04 07:49:07;;;;;;;12.50;11.15;;;;;;;17.96;99.07;102553.34;5041174;28;20456;-49
2023/09/04 07:51:32;;;;;;;12.68;11.38;;;;;;;18.11;97.04;102546.72;5040734;28;20025;-49
2023/09/04 07:53:58;;;;;;;12.07;10.88;;;;;;;18.29;95.98;102538.97;5034477;28;20047;-49
2023/09/04 07:56:24;;;;;;;11.80;10.63;;;;;;;18.59;95.05;102537.41;5038535;28;20602;-49
2023/09/04 07:58:49;;;;;;;13.73;10.35;;;;;;;18.82;92.78;102536.28;5046614;28;20041;-48
2023/09/04 08:01:15;;;;;;;12.68;10.13;;;;;;;18.95;91.23;102538.84;5038610;28;20030;-49
2023/09/04 08:03:41;;;;;;;10.40;8.93;;;;;;;19.15;91.36;102538.94;5049453;28;20444;-48
2023/09/04 08:06:07;;;;;;;11.32;9.25;;;;;;;19.39;91.99;102536.81;5037271;28;20392;-49
2023/09/04 08:08:32;;;;;;;11.43;9.07;;;;;;;19.52;87.71;102536.59;5047673;28;20029;-48
2023/09/04 08:10:57;;;;;;;9.95;8.85;;;;;;;19.66;85.73;102529.97;5049905;28;20025;-49
2023/09/04 08:13:23;;;;;;;9.40;8.50;;;;;;;19.88;86.50;102533.47;5041429;28;20033;-48
2023/09/04 08:15:48;;;;;;;10.10;7.95;;;;;;;20.06;85.68;102528.28;5046758;28;20185;-49
2023/09/04 08:18:13;;;;;;;8.43;7.57;;;;;;;20.18;85.38;102529.00;5051034;28;20544;-49
2023/09/04 08:20:39;;;;;;;12.20;7.47;;;;;;;20.39;82.59;102537.84;5044985;28;20507;-48
2023/09/04 08:23:06;;;;;;;9.05;7.47;;;;;;;20.57;81.46;102535.28;5043092;28;20037;-49
2023/09/04 08:25:32;;;;;;;8.30;7.32;;;;;;;20.77;81.31;102541.56;5039430;28;20026;-50
2023/09/04 08:27:58;;;;;;;8.95;7.40;;;;;;;20.92;79.21;102533.00;5047793;28;20040;-48
2023/09/04 08:30:23;;;;;;;8.82;7.43;;;;;;;21.12;78.83;102531.13;5055605;28;20556;-49
2023/09/04 08:32:49;;;;;;;9.30;6.78;;;;;;;21.37;79.81;102532.34;5045708;28;20047;-50
2023/09/04 08:35:15;;;;;;;7.13;6.43;;;;;;;21.48;75.37;102525.91;5042217;28;20029;-48
2023/09/04 08:37:40;;;;;;;7.50;6.38;;;;;;;21.59;75.44;102513.06;5039801;28;20510;-49
2023/09/04 08:40:06;;;;;;;7.18;5.63;;;;;;;21.89;75.67;102521.88;5035525;28;20033;-49
2023/09/04 08:42:32;;;;;;;8.35;5.65;;;;;;;22.21;75.68;102527.78;5039861;28;20025;-51
2023/09/04 08:44:58;;;;;;;6.15;5.55;;;;;;;22.51;73.18;102529.28;5041987;28;20029;-48
2023/09/04 08:47:24;;;;;;;8.30;5.43;;;;;;;22.81;71.42;102527.16;5035638;28;20380;-52
2023/09/04 08:49:56;;;;;;;8.18;5.85;;;;;;;22.94;71.48;102526.78;5037321;28;20040;-49
2023/09/04 08:52:22;;;;;;;5.68;5.15;;;;;;;23.25;68.35;102521.75;5036373;28;20160;-49
2023/09/04 08:54:48;;;;;;;6.47;5.30;;;;;;;23.42;67.45;102522.69;5038478;28;20112;-48
2023/09/04 08:57:14;;;;;;;5.50;5.00;;;;;;;23.71;66.23;102530.44;5036798;28;20094;-49
2023/09/04 08:59:40;;;;;;;7.35;4.88;;;;;;;23.90;65.64;102523.06;5039258;28;20036;-49
2023/09/04 09:02:11;;;;;;;7.63;4.75;;;;;;;24.10;63.79;102520.91;5043675;28;20036;-49
2023/09/04 09:04:37;;;;;;;7.05;5.05;;;;;;;24.33;62.45;102518.41;5043866;28;20029;-49
2023/09/04 09:07:03;;;;;;;4.85;4.43;;;;;;;24.46;62.72;102515.19;5038083;28;20429;-50
2023/09/04 09:09:29;;;;;;;7.00;4.35;;;;;;;24.66;62.49;102503.00;5042764;28;20037;-49
2023/09/04 09:11:55;;;;;;;5.25;4.40;;;;;;;24.88;60.12;102519.63;5040169;28;20095;-49
2023/09/04 09:14:21;;;;;;;7.05;4.35;;;;;;;25.14;59.78;102511.25;5041914;28;20034;-50
2023/09/04 09:16:46;;;;;;;4.80;4.07;;;;;;;25.25;58.75;102508.16;5042661;28;20025;-48
2023/09/04 09:19:13;;;;;;;4.90;4.40;;;;;;;25.26;56.81;102509.91;5042333;28;20551;-51
2023/09/04 09:21:39;;;;;;;6.35;3.90;;;;;;;25.48;56.61;102510.16;5040655;28;20476;-50
2023/09/04 09:24:14;;;;;;;5.43;3.92;;;;;;;25.66;54.54;102509.91;5042470;28;20096;-50
2023/09/04 09:26:42;;;;;;;6.15;3.75;;;;;;;25.81;54.48;102502.69;5042108;28;20041;-49
2023/09/04 09:29:08;;;;;;;5.75;3.30;;;;;;;26.00;54.25;102516.91;5043055;28;20029;-51
2023/09/04 09:31:35;;;;;;;4.40;3.50;;;;;;;26.22;52.62;102516.06;5038948;28;20423;-50
2023/09/04 09:34:01;;;;;;;3.50;2.92;;;;;;;26.44;53.16;102512.69;5040145;28;20021;-49
2023/09/04 09:36:28;;;;;;;4.90;3.28;;;;;;;26.50;51.61;102510.06;5039887;28;20085;-50
2023/09/04 09:38:54;;;;;;;5.03;3.28;;;;;;;26.65;50.79;102515.59;5046563;28;20155;-49
2023/09/04 09:41:19;;;;;;;7.30;2.67;;;;;;;26.84;51.00;102506.03;5044226;28;20037;-50
2023/09/04 09:43:44;;;;;;;6.22;3.08;;;;;;;27.09;50.62;102505.78;5047413;28;20045;-50
2023/09/04 09:46:10;;;;;;;4.07;3.10;;;;;;;27.18;50.37;102510.13;5055754;28;20297;-49
2023/09/04 09:48:36;;;;;;;4.75;3.00;;;;;;;27.43;48.64;102507.13;5044362;28;20327;-49
2023/09/04 09:51:06;;;;;;;4.78;2.90;;;;;;;27.35;50.14;102502.63;5043510;28;20036;-49
2023/09/04 09:53:43;;;;;;;4.72;3.20;;;;;;;27.71;51.58;102506.44;5045554;28;20367;-49
2023/09/04 09:56:10;;;;;;;4.15;2.85;;;;;;;27.68;48.92;102489.41;5035757;28;20042;-48
2023/09/04 09:58:37;;;;;;;3.35;3.10;;;;;;;27.86;47.19;102488.13;5051683;28;21576;-48
2023/09/04 10:01:02;;;;;;;4.70;2.90;;;;;;;27.82;46.80;102478.63;5046417;28;20391;-53
2023/09/04 10:03:28;;;;;;;3.53;2.50;;;;;;;27.97;46.71;102492.28;5040585;28;20682;-49
2023/09/04 10:05:54;;;;;;;4.20;2.55;;;;;;;27.95;46.71;102481.53;5045152;28;20037;-47
2023/09/04 10:08:21;;;;;;;4.25;3.00;;;;;;;27.86;45.40;102467.13;5042394;28;20036;-51
2023/09/04 10:10:48;;;;;;;3.67;3.00;;;;;;;27.80;45.18;102472.53;5041917;28;20410;-48
2023/09/04 10:13:26;;;;;;;3.87;2.50;;;;;;;27.88;48.11;102473.25;5049650;28;20071;-49
2023/09/04 10:15:55;;;;;;;2.75;2.50;;;;;;;27.95;44.38;102478.81;5051328;28;20552;-49
2023/09/04 10:18:28;;;;;;;4.20;2.33;;;;;;;27.97;45.17;102471.25;5047444;28;20037;-49
2023/09/04 10:20:56;;;;;;;2.58;2.38;;;;;;;27.86;44.44;102472.59;5046524;28;20067;-49
2023/09/04 10:23:28;;;;;;;2.60;2.40;;;;;;;28.08;45.02;102472.66;5050474;28;20163;-47
2023/09/04 10:26:07;;;;;;;3.38;2.25;;;;;;;28.12;46.52;102473.94;5050271;28;20036;-49
2023/09/04 10:28:39;;;;;;;4.07;2.72;;;;;;;28.23;45.28;102461.66;5051854;28;20394;-48
2023/09/04 10:31:05;;;;;;;5.47;2.50;;;;;;;28.43;43.80;102457.19;5051599;28;20894;-49
2023/09/04 10:33:31;;;;;;;5.85;2.40;;;;;;;28.67;46.73;102452.34;5050832;28;20062;-49
2023/09/04 10:35:58;;;;;;;3.97;2.47;;;;;;;28.90;43.64;102445.78;5054171;28;20068;-49
2023/09/04 10:38:25;;;;;;;2.65;2.28;;;;;;;29.02;42.72;102446.91;5052107;28;20032;-48
2023/09/04 10:40:51;;;;;;;3.28;2.28;;;;;;;29.25;42.94;102435.69;5050308;28;20029;-50
2023/09/04 10:43:16;;;;;;;3.22;2.40;;;;;;;29.38;42.20;102434.03;5054079;28;20052;-49
2023/09/04 10:45:41;;;;;;;4.18;2.60;;;;;;;29.67;41.27;102430.97;5048325;28;20030;-51
2023/09/04 10:48:07;;;;;;;2.60;2.03;;;;;;;29.54;40.11;102436.41;5055901;28;20033;-48
2023/09/04 10:50:37;;;;;;;3.47;2.25;;;;;;;29.53;40.09;102432.84;5044586;28;20040;-49
2023/09/04 10:53:04;;;;;;;2.22;2.03;;;;;;;29.55;37.30;102427.16;5049832;28;20028;-48
2023/09/04 10:55:34;;;;;;;2.70;2.10;;;;;;;29.62;36.84;102425.28;5048463;28;20032;-49
2023/09/04 10:58:01;;;;;;;3.22;2.03;;;;;;;29.48;37.43;102429.03;5052883;28;20029;-49
2023/09/04 11:00:33;;;;;;;4.20;1.95;;;;;;;29.74;38.31;102416.47;5053897;28;20502;-48
2023/09/04 11:03:24;;;;;;;3.08;1.98;;;;;;;29.98;40.01;102415.91;5045363;28;20030;-48
2023/09/04 11:06:07;;;;;;;3.20;2.00;;;;;;;30.03;39.19;102420.75;5041814;28;20500;-50
2023/09/04 11:08:40;;;;;;;3.30;2.30;;;;;;;29.80;36.01;102415.66;5045961;28;20043;-48